createdAt,value
2018-07-03T00:00:41.497Z,14.15
2018-07-03T00:03:10.610Z,14.18
2018-07-03T00:05:40.015Z,14.15
2018-07-03T00:08:09.103Z,14.12
2018-07-03T00:10:38.297Z,14.13
2018-07-03T00:13:07.398Z,14.10
2018-07-03T00:15:36.449Z,14.08
2018-07-03T00:18:06.028Z,14.07
2018-07-03T00:20:35.078Z,14.01
2018-07-03T00:23:04.208Z,14.00
2018-07-03T00:25:33.267Z,13.97
2018-07-03T00:28:02.373Z,13.94
2018-07-03T00:30:31.512Z,13.92
2018-07-03T00:33:00.977Z,13.87
2018-07-03T00:35:30.102Z,13.82
2018-07-03T00:37:59.568Z,13.76
2018-07-03T00:40:29.545Z,13.69
2018-07-03T00:42:59.479Z,13.65
2018-07-03T00:45:29.386Z,13.61
2018-07-03T00:47:59.423Z,13.58
2018-07-03T00:50:28.671Z,13.54
2018-07-03T00:52:57.674Z,13.55
2018-07-03T00:55:26.943Z,13.53
2018-07-03T00:57:56.043Z,13.54
2018-07-03T01:00:34.182Z,13.48
2018-07-03T01:03:04.324Z,13.47
2018-07-03T01:05:34.092Z,13.45
2018-07-03T01:08:03.207Z,13.42
2018-07-03T01:10:32.254Z,13.36
2018-07-03T01:13:01.619Z,13.35
2018-07-03T01:15:30.776Z,13.30
2018-07-03T01:18:00.316Z,13.26
2018-07-03T01:20:30.190Z,13.20
2018-07-03T01:22:59.770Z,13.13
2018-07-03T01:25:30.458Z,13.12
2018-07-03T01:27:59.992Z,13.14
2018-07-03T01:30:30.254Z,13.16
2018-07-03T01:33:00.123Z,13.21
2018-07-03T01:35:30.111Z,13.18
2018-07-03T01:38:00.354Z,13.11
2018-07-03T01:40:30.013Z,13.04
2018-07-03T01:43:00.258Z,12.96
2018-07-03T01:45:30.168Z,12.90
2018-07-03T01:48:00.135Z,12.87
2018-07-03T01:50:30.029Z,12.81
2018-07-03T01:53:00.362Z,12.81
2018-07-03T01:55:30.270Z,12.83
2018-07-03T01:58:00.195Z,12.81
2018-07-03T02:00:30.508Z,12.76
2018-07-03T02:03:00.320Z,12.71
2018-07-03T02:05:30.318Z,12.68
2018-07-03T02:08:00.558Z,12.67
2018-07-03T02:10:30.446Z,12.64
2018-07-03T02:13:00.489Z,12.61
2018-07-03T02:15:30.787Z,12.59
2018-07-03T02:18:00.746Z,12.54
2018-07-03T02:20:30.636Z,12.54
2018-07-03T02:23:00.866Z,12.49
2018-07-03T02:25:30.450Z,12.50
2018-07-03T02:28:00.804Z,12.54
2018-07-03T02:30:30.710Z,12.48
2018-07-03T02:33:00.939Z,12.49
2018-07-03T02:35:30.975Z,12.45
2018-07-03T02:38:00.887Z,12.45
2018-07-03T02:40:30.798Z,12.46
2018-07-03T02:43:00.752Z,12.37
2018-07-03T02:45:30.972Z,12.32
2018-07-03T02:48:00.970Z,12.27
2018-07-03T02:50:30.840Z,12.24
2018-07-03T02:53:01.165Z,12.28
2018-07-03T02:55:30.727Z,12.33
2018-07-03T02:58:00.727Z,12.37
2018-07-03T03:00:29.752Z,12.41
2018-07-03T03:02:58.801Z,12.44
2018-07-03T03:05:27.858Z,12.45
2018-07-03T03:07:56.878Z,12.46
2018-07-03T03:10:26.095Z,12.44
2018-07-03T03:12:55.174Z,12.45
2018-07-03T03:15:24.215Z,12.42
2018-07-03T03:17:53.382Z,12.39
2018-07-03T03:20:22.493Z,12.41
2018-07-03T03:22:51.566Z,12.40
2018-07-03T03:25:20.624Z,12.34
2018-07-03T03:27:49.766Z,12.16
2018-07-03T03:30:18.807Z,12.05
2018-07-03T03:32:47.954Z,11.99
2018-07-03T03:35:17.056Z,11.97
2018-07-03T03:37:46.566Z,11.93
2018-07-03T03:40:15.715Z,11.98
2018-07-03T03:42:45.201Z,11.96
2018-07-03T03:45:14.283Z,11.97
2018-07-03T03:47:43.369Z,11.95
2018-07-03T03:50:12.447Z,11.96
2018-07-03T03:52:41.553Z,11.97
2018-07-03T03:55:10.673Z,12.01
2018-07-03T03:57:40.371Z,12.06
2018-07-03T04:00:10.713Z,12.04
2018-07-03T04:02:40.139Z,12.09
2018-07-03T04:05:09.739Z,12.11
2018-07-03T04:07:39.218Z,12.07
2018-07-03T04:10:08.289Z,12.04
2018-07-03T04:12:37.397Z,11.96
2018-07-03T04:15:06.445Z,11.80
2018-07-03T04:17:36.118Z,11.71
2018-07-03T04:20:06.192Z,11.65
2018-07-03T04:22:35.269Z,11.59
2018-07-03T04:25:04.551Z,11.64
2018-07-03T04:27:34.023Z,11.76
2018-07-03T04:30:03.201Z,11.94
2018-07-03T04:32:32.256Z,12.04
2018-07-03T04:35:01.764Z,12.19
2018-07-03T04:37:31.683Z,12.27
2018-07-03T04:40:02.012Z,12.37
2018-07-03T04:42:31.785Z,12.44
2018-07-03T04:45:02.214Z,12.49
2018-07-03T04:47:32.036Z,12.63
2018-07-03T04:50:02.095Z,12.72
2018-07-03T04:52:31.782Z,12.78
2018-07-03T04:55:02.303Z,12.84
2018-07-03T04:57:32.097Z,12.98
2018-07-03T05:00:01.882Z,13.05
2018-07-03T05:02:31.849Z,13.15
2018-07-03T05:05:02.606Z,13.23
2018-07-03T05:07:31.927Z,13.28
2018-07-03T05:10:02.223Z,13.36
2018-07-03T05:12:32.173Z,13.39
2018-07-03T05:15:02.032Z,13.41
2018-07-03T05:36:51.555Z,13.48
2018-07-03T05:39:20.598Z,14.24
2018-07-03T05:41:49.658Z,14.27
2018-07-03T05:44:18.717Z,14.31
2018-07-03T05:46:47.804Z,14.36
2018-07-03T05:49:16.949Z,14.43
2018-07-03T05:51:46.006Z,14.52
2018-07-03T05:54:15.044Z,14.57
2018-07-03T05:56:44.097Z,14.66
2018-07-03T05:59:13.134Z,14.73
2018-07-03T06:01:42.230Z,14.79
2018-07-03T06:04:11.458Z,14.84
2018-07-03T06:06:40.471Z,14.93
2018-07-03T06:09:10.442Z,14.98
2018-07-03T06:11:39.518Z,15.06
2018-07-03T06:14:08.645Z,15.18
2018-07-03T06:16:37.928Z,15.34
2018-07-03T06:19:07.843Z,15.46
2018-07-03T06:21:36.901Z,15.59
2018-07-03T06:24:06.070Z,15.71
2018-07-03T06:26:35.125Z,15.75
2018-07-03T06:29:04.453Z,15.81
2018-07-03T06:31:33.927Z,15.93
2018-07-03T06:34:03.158Z,16.03
2018-07-03T06:37:03.619Z,16.17
2018-07-03T06:39:33.704Z,16.34
2018-07-03T06:42:03.161Z,16.50
2018-07-03T06:44:32.987Z,16.64
2018-07-03T07:09:37.592Z,16.66
2018-07-03T07:12:07.178Z,17.56
2018-07-03T07:14:36.295Z,17.65
2018-07-03T07:17:05.428Z,17.71
2018-07-03T07:19:34.688Z,17.75
2018-07-03T07:22:03.799Z,17.86
2018-07-03T07:24:33.575Z,17.94
2018-07-03T07:27:03.448Z,18.01
2018-07-03T07:29:33.511Z,18.11
2018-07-03T07:32:03.471Z,18.16
2018-07-03T07:34:33.600Z,18.25
2018-07-03T07:37:03.523Z,18.36
2018-07-03T07:39:33.689Z,18.47
2018-07-03T07:42:03.481Z,18.56
2018-07-03T07:44:32.521Z,18.65
2018-07-03T07:47:01.632Z,18.73
2018-07-03T07:49:30.749Z,18.83
2018-07-03T07:51:59.896Z,18.97
2018-07-03T07:54:29.543Z,19.09
2018-07-03T07:56:58.626Z,19.21
2018-07-03T07:59:27.668Z,19.31
2018-07-03T08:01:56.697Z,19.47
2018-07-03T08:04:25.745Z,19.58
2018-07-03T08:06:54.935Z,19.70
2018-07-03T08:09:24.040Z,19.81
2018-07-03T08:11:53.056Z,19.87
2018-07-03T08:14:22.246Z,19.91
2018-07-03T08:16:52.383Z,20.05
2018-07-03T08:19:21.448Z,20.13
2018-07-03T08:21:50.492Z,20.20
2018-07-03T08:24:19.531Z,20.24
2018-07-03T08:26:48.547Z,20.39
2018-07-03T08:29:17.575Z,20.54
2018-07-03T08:31:46.628Z,20.66
2018-07-03T08:34:15.699Z,20.80
2018-07-03T08:36:44.703Z,20.90
2018-07-03T08:39:13.857Z,21.00
2018-07-03T08:41:43.014Z,21.06
2018-07-03T08:44:12.028Z,21.15
2018-07-03T08:46:41.106Z,21.17
2018-07-03T08:49:10.159Z,21.22
2018-07-03T08:51:39.272Z,21.37
2018-07-03T08:54:08.337Z,21.49
2018-07-03T08:56:37.433Z,21.59
2018-07-03T08:59:06.514Z,21.65
2018-07-03T09:01:35.572Z,21.70
2018-07-03T09:04:04.618Z,21.82
2018-07-03T09:06:34.330Z,21.92
2018-07-03T09:09:06.741Z,22.04
2018-07-03T09:11:35.817Z,22.11
2018-07-03T09:14:05.093Z,22.20
2018-07-03T09:16:34.540Z,22.37
2018-07-03T09:19:04.511Z,22.50
2018-07-03T09:21:34.590Z,22.53
2018-07-03T09:24:04.538Z,22.56
2018-07-03T09:26:34.594Z,22.57
2018-07-03T09:29:04.489Z,22.63
2018-07-03T09:31:33.515Z,22.73
2018-07-03T09:34:02.583Z,22.86
2018-07-03T09:36:31.804Z,22.94
2018-07-03T09:39:00.867Z,23.02
2018-07-03T09:41:29.930Z,23.02
2018-07-03T09:43:59.019Z,23.03
2018-07-03T09:46:28.147Z,23.08
2018-07-03T09:48:57.266Z,23.07
2018-07-03T09:51:26.259Z,23.09
2018-07-03T09:53:55.325Z,23.11
2018-07-03T09:56:24.461Z,23.17
2018-07-03T09:58:53.597Z,23.11
2018-07-03T10:01:22.749Z,23.23
2018-07-03T10:03:51.859Z,23.28
2018-07-03T10:06:20.922Z,23.30
2018-07-03T10:08:49.981Z,23.33
2018-07-03T10:11:19.066Z,23.32
2018-07-03T10:13:48.105Z,23.39
2018-07-03T10:16:17.190Z,23.49
2018-07-03T10:18:46.278Z,23.60
2018-07-03T10:21:15.295Z,23.67
2018-07-03T10:23:44.355Z,23.74
2018-07-03T10:26:13.437Z,23.70
2018-07-03T10:28:42.525Z,23.76
2018-07-03T10:31:11.565Z,23.83
2018-07-03T10:33:40.659Z,23.84
2018-07-03T10:36:09.739Z,23.84
2018-07-03T10:38:38.799Z,23.87
2018-07-03T10:41:08.146Z,23.96
2018-07-03T10:43:37.156Z,24.13
2018-07-03T10:46:06.221Z,24.20
2018-07-03T10:48:35.461Z,24.22
2018-07-03T10:51:04.663Z,24.33
2018-07-03T10:53:33.776Z,24.33
2018-07-03T10:56:02.870Z,24.25
2018-07-03T10:58:32.020Z,24.25
2018-07-03T11:01:01.117Z,24.28
2018-07-03T11:03:30.216Z,24.28
2018-07-03T11:05:59.749Z,24.32
2018-07-03T11:08:28.840Z,24.30
2018-07-03T11:10:57.944Z,24.32
2018-07-03T11:13:27.022Z,24.27
2018-07-03T11:15:56.063Z,24.23
2018-07-03T11:18:25.485Z,24.37
2018-07-03T11:20:54.834Z,24.52
2018-07-03T11:23:23.923Z,24.66
2018-07-03T11:25:52.975Z,24.82
2018-07-03T11:28:22.024Z,24.92
2018-07-03T11:30:51.076Z,25.00
2018-07-03T11:33:20.202Z,25.14
2018-07-03T11:35:49.320Z,25.19
2018-07-03T11:38:18.399Z,25.26
2018-07-03T11:40:47.497Z,25.32
2018-07-03T11:43:16.559Z,25.33
2018-07-03T11:45:45.586Z,25.44
2018-07-03T11:48:14.692Z,25.42
2018-07-03T11:50:43.805Z,25.36
2018-07-03T11:53:12.972Z,25.29
2018-07-03T11:55:42.065Z,25.34
2018-07-03T11:58:11.161Z,25.40
2018-07-03T12:00:40.249Z,25.57
2018-07-03T12:03:09.356Z,25.72
2018-07-03T12:05:38.439Z,25.87
2018-07-03T12:08:07.561Z,25.95
2018-07-03T12:10:36.616Z,26.04
2018-07-03T12:13:06.061Z,26.07
2018-07-03T12:15:35.920Z,26.14
2018-07-03T12:18:05.276Z,26.17
2018-07-03T12:20:34.400Z,26.26
2018-07-03T12:23:03.489Z,26.35
2018-07-03T12:25:32.561Z,26.36
2018-07-03T12:28:02.486Z,26.31
2018-07-03T12:30:31.620Z,26.23
2018-07-03T12:33:00.750Z,26.34
2018-07-03T12:35:29.829Z,26.65
2018-07-03T12:37:58.865Z,26.96
2018-07-03T12:40:27.918Z,26.99
2018-07-03T12:42:57.526Z,27.03
2018-07-03T12:45:26.610Z,27.07
2018-07-03T12:47:55.763Z,27.01
2018-07-03T12:50:24.858Z,27.20
2018-07-03T12:52:53.943Z,27.32
2018-07-03T12:55:23.200Z,27.38
2018-07-03T12:57:52.252Z,27.44
2018-07-03T13:00:21.357Z,27.33
2018-07-03T13:02:50.399Z,27.15
2018-07-03T13:05:19.498Z,26.92
2018-07-03T13:07:48.630Z,26.85
2018-07-03T13:10:17.689Z,26.93
2018-07-03T13:12:46.742Z,27.07
2018-07-03T13:15:15.849Z,27.13
2018-07-03T13:17:45.290Z,27.07
2018-07-03T13:20:14.403Z,27.14
2018-07-03T13:22:43.501Z,27.31
2018-07-03T13:25:13.229Z,27.33
2018-07-03T13:27:42.363Z,27.37
2018-07-03T13:30:11.463Z,27.39
2018-07-03T13:32:40.542Z,27.52
2018-07-03T13:35:10.878Z,27.78
2018-07-03T13:37:39.963Z,27.97
2018-07-03T13:40:09.838Z,28.19
2018-07-03T13:42:38.916Z,28.44
2018-07-03T13:45:08.170Z,28.67
2018-07-03T13:47:37.284Z,28.81
2018-07-03T13:50:06.880Z,28.63
2018-07-03T13:52:36.783Z,28.48
2018-07-03T13:55:06.937Z,28.60
2018-07-03T13:57:36.783Z,28.64
2018-07-03T14:00:07.953Z,28.33
2018-07-03T14:02:37.016Z,28.34
2018-07-03T14:24:26.158Z,28.48
2018-07-03T14:26:56.284Z,32.05
2018-07-03T14:29:25.724Z,31.88
2018-07-03T14:31:54.761Z,31.67
2018-07-03T17:53:08.410Z,25.96
2018-07-03T17:55:37.746Z,25.83
2018-07-03T17:58:07.297Z,25.74
2018-07-03T18:00:36.619Z,25.67
2018-07-03T18:03:05.736Z,25.62
2018-07-03T18:05:34.785Z,25.32
2018-07-03T18:08:03.945Z,25.08
2018-07-03T18:10:33.114Z,24.85
2018-07-03T18:13:02.164Z,24.72
2018-07-03T18:15:31.962Z,24.55
2018-07-03T18:18:07.737Z,24.44
2018-07-03T18:20:36.785Z,24.37
2018-07-03T18:23:06.357Z,24.23
2018-07-03T18:25:35.897Z,24.12
2018-07-03T18:28:05.453Z,23.96
2018-07-03T18:30:35.292Z,23.81
2018-07-03T18:33:04.990Z,23.75
2018-07-03T18:35:33.937Z,23.66
2018-07-03T18:38:03.341Z,23.62
2018-07-03T18:40:32.532Z,23.58
2018-07-03T18:43:01.977Z,23.52
2018-07-03T18:45:31.111Z,23.50
2018-07-03T18:48:00.637Z,23.50
2018-07-03T18:50:29.733Z,23.46
2018-07-03T18:52:58.853Z,23.44
2018-07-03T18:55:28.339Z,23.41
2018-07-03T18:57:57.823Z,23.36
2018-07-03T19:00:27.015Z,23.29
2018-07-03T19:02:56.402Z,23.25
2018-07-03T19:05:25.594Z,23.15
2018-07-03T19:07:54.783Z,23.09
2018-07-03T19:10:24.127Z,23.04
2018-07-03T19:12:53.272Z,22.98
2018-07-03T19:15:22.350Z,22.94
2018-07-03T19:17:51.421Z,22.91
2018-07-03T19:20:20.943Z,22.88
2018-07-03T19:22:50.053Z,22.81
2018-07-03T19:25:19.092Z,22.74
2018-07-03T19:27:48.617Z,22.70
2018-07-03T19:30:17.992Z,22.66
2018-07-03T19:32:47.222Z,22.62
2018-07-03T19:35:16.664Z,22.56
2018-07-03T19:37:45.837Z,22.53
2018-07-03T19:40:15.335Z,22.50
2018-07-03T19:42:57.349Z,22.45
2018-07-03T19:45:26.649Z,22.42
2018-07-03T19:47:56.411Z,22.38
2018-07-03T19:50:25.500Z,22.33
2018-07-03T19:52:54.751Z,22.26
2018-07-03T19:55:23.838Z,22.22
2018-07-03T19:57:53.352Z,22.21
2018-07-03T20:00:22.631Z,22.17
2018-07-03T20:02:52.350Z,22.13
2018-07-03T20:05:21.846Z,22.10
2018-07-03T20:07:51.268Z,22.07
2018-07-03T20:10:20.494Z,22.04
2018-07-03T20:12:49.940Z,22.02
2018-07-03T20:15:19.491Z,21.99
2018-07-03T20:17:48.592Z,21.95
2018-07-03T20:20:18.070Z,21.91
2018-07-03T20:22:47.588Z,21.85
2018-07-03T20:25:16.922Z,21.78
2018-07-03T20:27:46.498Z,21.73
2018-07-03T20:30:15.697Z,21.66
2018-07-03T20:32:45.482Z,21.62
2018-07-03T20:35:14.664Z,21.60
2018-07-03T20:37:52.856Z,21.57
2018-07-03T20:40:23.005Z,21.49
2018-07-03T20:42:54.313Z,21.41
2018-07-03T20:45:23.786Z,21.27
2018-07-03T20:47:52.890Z,21.15
2018-07-03T20:50:22.348Z,21.11
2018-07-03T20:52:51.419Z,21.06
2018-07-03T20:55:20.511Z,20.98
2018-07-03T20:57:49.652Z,20.93
2018-07-03T21:00:18.748Z,20.90
2018-07-03T21:02:47.796Z,20.87
2018-07-03T21:05:16.869Z,20.86
2018-07-03T21:07:46.055Z,20.83
2018-07-03T21:10:15.404Z,20.79
2018-07-03T21:12:44.460Z,20.76
2018-07-03T21:15:15.966Z,20.73
2018-07-03T21:17:46.037Z,20.70
2018-07-03T21:20:15.208Z,20.68
2018-07-03T21:22:44.509Z,20.64
2018-07-03T21:25:13.558Z,20.56
2018-07-03T21:27:43.574Z,20.52
2018-07-03T21:30:14.351Z,20.45
2018-07-03T21:32:44.419Z,20.38
2018-07-03T21:35:14.182Z,20.28
2018-07-03T21:37:43.316Z,20.16
2018-07-03T21:40:12.500Z,20.04
2018-07-03T21:42:41.644Z,19.93
2018-07-03T21:45:10.708Z,19.85
2018-07-03T21:47:41.035Z,19.73
2018-07-03T21:50:10.751Z,19.71
2018-07-03T21:52:39.936Z,19.72
2018-07-03T21:55:09.248Z,19.70
2018-07-03T21:57:38.416Z,19.69
2018-07-03T22:00:08.979Z,19.67
2018-07-03T22:02:38.320Z,19.64
2018-07-03T22:05:07.568Z,19.60
2018-07-03T22:07:36.670Z,19.58
2018-07-03T22:10:05.722Z,19.54
2018-07-03T22:12:35.298Z,19.47
2018-07-03T22:15:04.718Z,19.46
2018-07-03T22:17:34.170Z,19.44
2018-07-03T22:20:03.271Z,19.38
2018-07-03T22:22:32.465Z,19.35
2018-07-03T22:25:01.508Z,19.32
2018-07-03T22:27:30.670Z,19.32
2018-07-03T22:29:59.769Z,19.31
2018-07-03T22:32:28.874Z,19.29
2018-07-03T22:34:57.964Z,19.28
2018-07-03T22:37:27.097Z,19.27
2018-07-03T22:39:56.572Z,19.27
2018-07-03T22:42:25.666Z,19.24
2018-07-03T22:44:54.702Z,19.23
2018-07-03T22:47:23.742Z,19.17
2018-07-03T22:49:52.879Z,19.09
2018-07-03T22:52:21.978Z,19.08
2018-07-03T22:54:51.024Z,19.05
2018-07-03T22:57:20.344Z,19.02
2018-07-03T22:59:49.402Z,19.00
2018-07-03T23:02:18.818Z,18.95
2018-07-03T23:04:47.916Z,18.94
2018-07-03T23:07:16.962Z,18.93
2018-07-03T23:09:46.122Z,18.92
2018-07-03T23:12:19.121Z,18.93
2018-07-03T23:14:50.524Z,18.92
2018-07-03T23:17:19.583Z,18.93
2018-07-03T23:19:49.501Z,18.90
2018-07-03T23:22:18.976Z,18.90
2018-07-03T23:24:48.044Z,18.89
2018-07-03T23:27:17.062Z,18.85
2018-07-03T23:29:46.127Z,18.79
2018-07-03T23:32:15.186Z,18.69
2018-07-03T23:34:44.251Z,18.61
2018-07-03T23:37:13.316Z,18.59
2018-07-03T23:39:42.666Z,18.56
2018-07-03T23:42:12.198Z,18.54
2018-07-03T23:44:42.069Z,18.44
2018-07-03T23:47:22.659Z,18.32
2018-07-03T23:50:02.802Z,18.20
2018-07-03T23:52:43.383Z,18.21
2018-07-03T23:55:23.512Z,18.25
2018-07-03T23:58:03.801Z,18.27
